地図

経路データ

SID SEASON NUMBER BASIN SUBBASIN NAME ISO_TIME NATURE LAT LON WMO_WIND WMO_PRES WMO_AGENCY TRACK_TYPE DIST2LAND LANDFALL IFLAG USA_AGENCY USA_ATCF_ID USA_LAT USA_LON USA_RECORD USA_STATUS USA_WIND USA_PRES USA_SSHS USA_R34_NE USA_R34_SE USA_R34_SW USA_R34_NW USA_R50_NE USA_R50_SE USA_R50_SW USA_R50_NW USA_R64_NE USA_R64_SE USA_R64_SW USA_R64_NW USA_POCI USA_ROCI USA_RMW USA_EYE TOKYO_LAT TOKYO_LON TOKYO_GRADE TOKYO_WIND TOKYO_PRES TOKYO_R50_DIR TOKYO_R50_LONG TOKYO_R50_SHORT TOKYO_R30_DIR TOKYO_R30_LONG TOKYO_R30_SHORT TOKYO_LAND CMA_LAT CMA_LON CMA_CAT CMA_WIND CMA_PRES HKO_LAT HKO_LON HKO_CAT HKO_WIND HKO_PRES NEWDELHI_LAT NEWDELHI_LON NEWDELHI_GRADE NEWDELHI_WIND NEWDELHI_PRES NEWDELHI_CI NEWDELHI_DP NEWDELHI_POCI REUNION_LAT REUNION_LON REUNION_TYPE REUNION_WIND REUNION_PRES REUNION_TNUM REUNION_CI REUNION_RMW REUNION_R34_NE REUNION_R34_SE REUNION_R34_SW REUNION_R34_NW REUNION_R50_NE REUNION_R50_SE REUNION_R50_SW REUNION_R50_NW REUNION_R64_NE REUNION_R64_SE REUNION_R64_SW REUNION_R64_NW BOM_LAT BOM_LON BOM_TYPE BOM_WIND BOM_PRES BOM_TNUM BOM_CI BOM_RMW BOM_R34_NE BOM_R34_SE BOM_R34_SW BOM_R34_NW BOM_R50_NE BOM_R50_SE BOM_R50_SW BOM_R50_NW BOM_R64_NE BOM_R64_SE BOM_R64_SW BOM_R64_NW BOM_ROCI BOM_POCI BOM_EYE BOM_POS_METHOD BOM_PRES_METHOD NADI_LAT NADI_LON NADI_CAT NADI_WIND NADI_PRES WELLINGTON_LAT WELLINGTON_LON WELLINGTON_WIND WELLINGTON_PRES DS824_LAT DS824_LON DS824_STAGE DS824_WIND DS824_PRES TD9636_LAT TD9636_LON TD9636_STAGE TD9636_WIND TD9636_PRES TD9635_LAT TD9635_LON TD9635_WIND TD9635_PRES TD9635_ROCI NEUMANN_LAT NEUMANN_LON NEUMANN_CLASS NEUMANN_WIND NEUMANN_PRES MLC_LAT MLC_LON MLC_CLASS MLC_WIND MLC_PRES USA_GUST BOM_GUST BOM_GUST_PER REUNION_GUST REUNION_GUST_PER USA_SEAHGT USA_SEARAD_NE USA_SEARAD_SE USA_SEARAD_SW USA_SEARAD_NW STORM_SPEED STORM_DIR
1940303N11156 1940 77 WP MM NOT_NAMED 1940-10-28 21:00:00 NR 11.2000 156.200 main 1664 1631 __________O___ -1 11.2000 156.200 4 12 261
1940303N11156 1940 77 WP MM NOT_NAMED 1940-10-29 00:00:00 NR 11.1122 155.612 main 1631 1614 __________P___ -1 11.1122 155.612 4 11 262
1940303N11156 1940 77 WP MM NOT_NAMED 1940-10-29 03:00:00 NR 11.0489 155.080 main 1603 1591 __________P___ -1 11.0489 155.080 4 9 265
1940303N11156 1940 77 WP MM NOT_NAMED 1940-10-29 06:00:00 NR 11.0361 154.657 main 1591 1585 __________P___ -1 11.0361 154.657 4 7 274
1940303N11156 1940 77 WP MM NOT_NAMED 1940-10-29 09:00:00 NR 11.1000 154.400 main 1594 1594 __________O___ -1 11.1000 154.400 4 4 306
1940303N11156 1940 77 WP MM NOT_NAMED 1940-10-29 12:00:00 NR 11.2568 154.342 main 1613 1613 __________P___ -1 11.2568 154.342 4 4 5
1940303N11156 1940 77 WP MM NOT_NAMED 1940-10-29 15:00:00 NR 11.4822 154.435 main 1637 1637 __________P___ -1 11.4822 154.435 4 6 28
1940303N11156 1940 77 WP MM NOT_NAMED 1940-10-29 18:00:00 NR 11.7414 154.610 main 1664 1664 __________P___ -1 11.7414 154.610 4 6 35
1940303N11156 1940 77 WP MM NOT_NAMED 1940-10-29 21:00:00 NR 12.0000 154.800 main 1702 1702 __________O___ -1 12.0000 154.800 4 5 31
1940303N11156 1940 77 WP MM NOT_NAMED 1940-10-30 00:00:00 NR 12.1990 154.892 main 1727 1727 __________P___ -1 12.1990 154.892 4 4 25
1940303N11156 1940 77 WP MM NOT_NAMED 1940-10-30 03:00:00 NR 12.3924 154.985 main 1751 1751 __________P___ -1 12.3924 154.985 4 4 26
1940303N11156 1940 77 WP MM NOT_NAMED 1940-10-30 06:00:00 NR 12.5896 155.086 main 1775 1775 __________P___ -1 12.5896 155.086 4 5 27
1940303N11156 1940 77 WP MM NOT_NAMED 1940-10-30 09:00:00 NR 12.8000 155.200 main 1800 1800 __________O___ -1 12.8000 155.200 4 5 29
1940303N11156 1940 77 WP MM NOT_NAMED 1940-10-30 12:00:00 NR 13.0479 155.352 main 1827 1827 __________P___ -1 13.0479 155.352 4 6 31
1940303N11156 1940 77 WP MM NOT_NAMED 1940-10-30 15:00:00 NR 13.3076 155.515 main 1863 1863 __________P___ -1 13.3076 155.515 4 6 31
1940303N11156 1940 77 WP MM NOT_NAMED 1940-10-30 18:00:00 NR 13.5635 155.670 main 1901 1901 __________P___ -1 13.5635 155.670 4 6 29
1940303N11156 1940 77 WP MM NOT_NAMED 1940-10-30 21:00:00 NR 13.8000 155.800 main 1926 1926 __________O___ -1 13.8000 155.800 4 5 20
1940303N11156 1940 77 WP MM NOT_NAMED 1940-10-31 00:00:00 NR 14.0411 155.855 main 1950 1950 __________P___ -1 14.0411 155.855 4 5 10
1940303N11156 1940 77 WP MM NOT_NAMED 1940-10-31 03:00:00 NR 14.2548 155.885 main 1982 1982 __________P___ -1 14.2548 155.885 4 4 11
1940303N11156 1940 77 WP MM NOT_NAMED 1940-10-31 06:00:00 NR 14.4161 155.923 main 1993 1993 __________P___ -1 14.4161 155.923 4 3 24
1940303N11156 1940 77 WP MM NOT_NAMED 1940-10-31 09:00:00 NR 14.5000 156.000 main 2007 2007 __________O___ -1 14.5000 156.000 4 3 83
1940303N11156 1940 77 WP MM NOT_NAMED 1940-10-31 12:00:00 NR 14.4509 156.230 main 2013 2002 __________P___ -1 14.4509 156.230 4 5 110
1940303N11156 1940 77 WP MM NOT_NAMED 1940-10-31 15:00:00 NR 14.3303 156.491 main 2002 1995 __________P___ -1 14.3303 156.491 4 5 119
1940303N11156 1940 77 WP MM NOT_NAMED 1940-10-31 18:00:00 NR 14.1945 156.705 main 1998 1991 __________P___ -1 14.1945 156.705 4 4 127
1940303N11156 1940 77 WP MM NOT_NAMED 1940-10-31 21:00:00 NR 14.1000 156.800 main 1991 1991 __________O___ -1 14.1000 156.800 4 1 109
1940303N11156 1940 77 WP MM NOT_NAMED 1940-11-01 00:00:00 NR 14.1765 156.765 main 2002 1998 __________P___ -1 14.1765 156.765 4 3 314
1940303N11156 1940 77 WP MM NOT_NAMED 1940-11-01 03:00:00 NR 14.2934 156.594 main 2005 2002 __________P___ -1 14.2934 156.594 4 5 294
1940303N11156 1940 77 WP MM NOT_NAMED 1940-11-01 06:00:00 NR 14.3886 156.275 main 2006 1990 __________P___ -1 14.3886 156.275 4 8 278
1940303N11156 1940 77 WP MM NOT_NAMED 1940-11-01 09:00:00 NR 14.4000 155.800 main 1990 1951 __________O___ -1 14.4000 155.800 4 11 261
1940303N11156 1940 77 WP MM NOT_NAMED 1940-11-01 12:00:00 NR 14.2130 155.121 main 1949 1910 __________P___ -1 14.2130 155.121 4 15 252
1940303N11156 1940 77 WP MM NOT_NAMED 1940-11-01 15:00:00 NR 13.9404 154.307 main 1897 1859 __________P___ -1 13.9404 154.307 4 17 251
1940303N11156 1940 77 WP MM NOT_NAMED 1940-11-01 18:00:00 NR 13.6473 153.465 main 1848 1814 __________P___ -1 13.6473 153.465 4 17 251
1940303N11156 1940 77 WP MM NOT_NAMED 1940-11-01 21:00:00 NR 13.4000 152.700 main 1814 1799 __________O___ -1 13.4000 152.700 4 12 254
1940303N11156 1940 77 WP MM NOT_NAMED 1940-11-02 00:00:00 NR 13.3017 152.259 main 1799 1795 __________P___ -1 13.3017 152.259 4 8 260
1940303N11156 1940 77 WP MM NOT_NAMED 1940-11-02 03:00:00 NR 13.2580 151.892 main 1795 1772 __________P___ -1 13.2580 151.892 4 8 265
1940303N11156 1940 77 WP MM NOT_NAMED 1940-11-02 06:00:00 NR 13.2356 151.478 main 1772 1757 __________P___ -1 13.2356 151.478 4 10 267
1940303N11156 1940 77 WP MM NOT_NAMED 1940-11-02 09:00:00 NR 13.2000 150.900 main 1757 1727 __________O___ -1 13.2000 150.900 4 15 264
1940303N11156 1940 77 WP MM NOT_NAMED 1940-11-02 12:00:00 NR 13.0720 149.906 main 1725 1687 __________P___ -1 13.0720 149.906 4 21 263
1940303N11156 1940 77 WP MM NOT_NAMED 1940-11-02 15:00:00 NR 12.9256 148.756 main 1687 1686 __________P___ -1 12.9256 148.756 4 18 262
1940303N11156 1940 77 WP MM NOT_NAMED 1940-11-02 16:00:00 NR 12.9022 148.691 main 1686 1682 __________P___ -1 12.8777 148.364 4 12 264
1940303N11156 1940 77 WP MM NOT_NAMED 1940-11-02 18:00:00 NR 12.8653 148.119 main 1682 1669 __________P___ -1 12.7907 147.603 4 18 268
1940303N11156 1940 77 WP MM NOT_NAMED 1940-11-02 21:00:00 NR 12.8434 147.159 main 1669 1669 __________O___ -1 12.7000 146.600 4 17 270
1940303N11156 1940 77 WP MM NOT_NAMED 1940-11-03 00:00:00 NR 12.8600 146.376 main 1680 1680 __________P___ -1 12.6633 146.034 4 15 272
1940303N11156 1940 77 WP MM NOT_NAMED 1940-11-03 03:00:00 NR 12.8846 145.626 main 1684 1684 __________P___ -1 12.6823 145.620 4 14 272
1940303N11156 1940 77 WP MM NOT_NAMED 1940-11-03 04:00:00 NR 12.9008 145.396 main 1685 1685 __________P___ -1 12.7016 145.492 4 13 275
1940303N11156 1940 77 WP MM NOT_NAMED 1940-11-03 06:00:00 NR 12.9464 144.951 main 1689 1689 __________P___ -1 12.7603 145.221 4 13 278
1940303N11156 1940 77 WP MM NOT_NAMED 1940-11-03 09:00:00 NR 13.0538 144.281 main 1721 1721 __________O___ -1 12.9000 144.700 4 15 280
1940303N11156 1940 77 WP MM NOT_NAMED 1940-11-03 12:00:00 NR 13.2011 143.448 main 1750 1744 __________P___ -1 13.0716 143.752 4 17 282
1940303N11156 1940 77 WP MM NOT_NAMED 1940-11-03 15:00:00 NR 13.4097 142.593 main 1749 1746 __________P___ -1 13.3001 142.684 4 17 285
1940303N11156 1940 77 WP MM NOT_NAMED 1940-11-03 16:00:00 NR 13.4938 142.314 main 1750 1743 __________P___ -1 13.3876 142.328 4 17 289
1940303N11156 1940 77 WP MM NOT_NAMED 1940-11-03 18:00:00 NR 13.6892 141.753 main 1749 1695 __________P___ -1 13.5780 141.649 4 16 293
1940303N11156 1940 77 WP MM NOT_NAMED 1940-11-03 21:00:00 NR 14.0323 141.021 main 1684 1639 __________O___ -1 13.9000 140.800 4 14 301
1940303N11156 1940 77 WP MM NOT_NAMED 1940-11-04 00:00:00 NR 14.4158 140.520 main 1639 1614 __________P___ -1 14.2625 140.345 4 12 313
1940303N11156 1940 77 WP MM NOT_NAMED 1940-11-04 03:00:00 NR 14.8199 140.161 main 1616 1605 __________P___ -1 14.6670 140.089 4 10 321
1940303N11156 1940 77 WP MM NOT_NAMED 1940-11-04 04:00:00 NR 14.9534 140.066 main 1609 1589 __________P___ -1 14.8068 140.031 4 9 327
1940303N11156 1940 77 WP MM NOT_NAMED 1940-11-04 06:00:00 NR 15.2024 139.897 main 1591 1577 __________P___ -1 15.0882 139.938 4 9 329
1940303N11156 1940 77 WP MM NOT_NAMED 1940-11-04 09:00:00 NR 15.5615 139.683 main 1579 1555 __________O___ -1 15.5000 139.800 4 8 327
1940303N11156 1940 77 WP MM NOT_NAMED 1940-11-04 12:00:00 NR 15.9002 139.422 main 1555 1540 __________P___ -1 15.8848 139.500 4 8 324
1940303N11156 1940 77 WP MM NOT_NAMED 1940-11-04 15:00:00 NR 16.2281 139.178 main 1543 1536 __________P___ -1 16.2527 139.198 4 8 325
1940303N11156 1940 77 WP MM NOT_NAMED 1940-11-04 16:00:00 NR 16.3350 139.101 main 1536 1528 __________P___ -1 16.3700 139.102 4 8 325
1940303N11156 1940 77 WP MM NOT_NAMED 1940-11-04 18:00:00 NR 16.5431 138.948 main 1521 1518 __________P___ -1 16.5942 138.922 4 7 326
1940303N11156 1940 77 WP MM NOT_NAMED 1940-11-04 21:00:00 NR 16.8399 138.752 main 1521 1508 __________O___ -1 16.9000 138.700 4 6 329
1940303N11156 1940 77 WP MM NOT_NAMED 1940-11-05 00:00:00 NR 17.0960 138.601 main 1512 1506 __________P___ -1 17.1160 138.563 4 6 333
1940303N11156 1940 77 WP MM NOT_NAMED 1940-11-05 03:00:00 NR 17.3473 138.473 main 1509 1503 __________P___ -1 17.3048 138.482 4 6 335
1940303N11156 1940 77 WP MM NOT_NAMED 1940-11-05 04:00:00 NR 17.4351 138.432 main 1503 1503 __________P___ -1 17.3702 138.463 4 6 336
1940303N11156 1940 77 WP MM NOT_NAMED 1940-11-05 06:00:00 NR 17.6245 138.343 main 1502 1500 __________P___ -1 17.5161 138.435 4 7 337
1940303N11156 1940 77 WP MM NOT_NAMED 1940-11-05 09:00:00 NR 17.9506 138.204 main 1509 1504 __________O___ -1 17.8000 138.400 4 8 341
1940303N11156 1940 77 WP MM NOT_NAMED 1940-11-05 12:00:00 NR 18.3745 138.074 main 1518 1514 __________P___ -1 18.2653 138.399 4 9 344
1940303N11156 1940 77 WP MM NOT_NAMED 1940-11-05 15:00:00 NR 18.8354 137.942 main 1519 1519 __________P___ -1 18.7994 138.396 4 10 345
1940303N11156 1940 77 WP MM NOT_NAMED 1940-11-05 16:00:00 NR 18.9905 137.894 main 1523 1488 __________P___ -1 18.9809 138.387 4 10 342
1940303N11156 1940 77 WP MM NOT_NAMED 1940-11-05 18:00:00 NR 19.2972 137.778 main 1488 1439 __________P___ -1 19.3339 138.346 4 10 337
1940303N11156 1940 77 WP MM NOT_NAMED 1940-11-05 21:00:00 NR 19.7258 137.562 main 1439 1394 __________O___ -1 19.8000 138.200 4 9 327
1940303N11156 1940 77 WP MM NOT_NAMED 1940-11-06 00:00:00 NR 20.0542 137.258 main 1384 1350 __________P___ -1 20.0766 137.852 4 9 316
1940303N11156 1940 77 WP MM NOT_NAMED 1940-11-06 03:00:00 NR 20.3350 136.934 main 1346 1331 __________P___ -1 20.2815 137.415 4 8 313
1940303N11156 1940 77 WP MM NOT_NAMED 1940-11-06 04:00:00 NR 20.4217 136.832 main 1331 1306 __________P___ -1 20.3435 137.264 4 7 314
1940303N11156 1940 77 WP MM NOT_NAMED 1940-11-06 06:00:00 NR 20.5908 136.652 main 1306 1277 __________P___ -1 20.4704 136.971 4 7 320
1940303N11156 1940 77 WP MM NOT_NAMED 1940-11-06 09:00:00 NR 20.8516 136.446 main 1263 1232 __________O___ -1 20.7000 136.600 4 7 334
1940303N11156 1940 77 WP MM NOT_NAMED 1940-11-06 12:00:00 NR 21.1822 136.348 main 1228 1198 __________P___ -1 21.0938 136.405 4 7 349
1940303N11156 1940 77 WP MM NOT_NAMED 1940-11-06 15:00:00 NR 21.5246 136.297 main 1198 1188 __________P___ -1 21.5293 136.294 4 7 353
1940303N11156 1940 77 WP MM NOT_NAMED 1940-11-06 16:00:00 NR 21.6370 136.285 main 1188 1168 __________P___ -1 21.6741 136.271 4 7 353
1940303N11156 1940 77 WP MM NOT_NAMED 1940-11-06 18:00:00 NR 21.8532 136.248 main 1153 1133 __________P___ -1 21.9503 136.237 4 6 351
1940303N11156 1940 77 WP MM NOT_NAMED 1940-11-06 21:00:00 NR 22.1389 136.196 main 1133 1109 __________O___ -1 22.3000 136.200 4 5 347
1940303N11156 1940 77 WP MM NOT_NAMED 1940-11-07 00:00:00 NR 22.3374 136.128 main 1109 1089 __________P___ -1 22.4796 136.123 4 4 344
1940303N11156 1940 77 WP MM NOT_NAMED 1940-11-07 03:00:00 NR 22.5041 136.082 main 1089 1089 __________P___ -1 22.5874 136.062 4 3 346
1940303N11156 1940 77 WP MM NOT_NAMED 1940-11-07 04:00:00 NR 22.5583 136.073 main 1079 1069 __________P___ -1 22.6166 136.046 4 4 0
1940303N11156 1940 77 WP MM NOT_NAMED 1940-11-07 06:00:00 NR 22.6781 136.067 main 1069 1050 __________P___ -1 22.6765 136.020 4 4 5
1940303N11156 1940 77 WP MM NOT_NAMED 1940-11-07 09:00:00 NR 22.8811 136.083 main 1050 1030 __________O___ -1 22.8000 136.000 4 5 3
1940303N11156 1940 77 WP MM NOT_NAMED 1940-11-07 12:00:00 NR 23.1387 136.090 main 1030 1002 __________P___ -1 23.0314 135.931 4 5 5
1940303N11156 1940 77 WP MM NOT_NAMED 1940-11-07 15:00:00 NR 23.4100 136.126 main 1002 992 __________P___ -1 23.3040 135.894 4 6 10
1940303N11156 1940 77 WP MM NOT_NAMED 1940-11-07 16:00:00 NR 23.5005 136.148 main 992 988 __________P___ -1 23.4010 135.897 4 5 7
1940303N11156 1940 77 WP MM NOT_NAMED 1940-11-07 18:00:00 NR 23.6585 136.162 main 978 960 __________P___ -1 23.5997 135.935 4 5 13
1940303N11156 1940 77 WP MM NOT_NAMED 1940-11-07 21:00:00 NR 23.8867 136.244 main 960 951 __________O___ -1 23.9000 136.100 4 5 29
1940303N11156 1940 77 WP MM NOT_NAMED 1940-11-08 00:00:00 NR 24.0869 136.425 main 951 946 __________P___ -1 24.1242 136.352 4 7 48
1940303N11156 1940 77 WP MM NOT_NAMED 1940-11-08 03:00:00 NR 24.3255 136.783 main 953 944 __________P___ -1 24.3563 136.741 4 9 55
1940303N11156 1940 77 WP MM NOT_NAMED 1940-11-08 04:00:00 NR 24.4211 136.952 main 955 945 __________P___ -1 24.4422 136.905 4 13 59
1940303N11156 1940 77 WP MM NOT_NAMED 1940-11-08 06:00:00 NR 24.6550 137.388 main 951 951 __________P___ -1 24.6354 137.285 4 16 60
1940303N11156 1940 77 WP MM NOT_NAMED 1940-11-08 09:00:00 NR 25.0807 138.230 main 955 926 __________O___ -1 25.0000 138.000 4 19 60
1940303N11156 1940 77 WP MM NOT_NAMED 1940-11-08 12:00:00 NR 25.6163 139.240 main 930 912 __________P___ -1 25.5378 138.857 4 22 60
1940303N11156 1940 77 WP MM NOT_NAMED 1940-11-08 15:00:00 NR 26.1895 140.384 main 917 912 __________P___ -1 26.1498 139.889 4 24 61
1940303N11156 1940 77 WP MM NOT_NAMED 1940-11-08 16:00:00 NR 26.3787 140.782 main 917 915 __________P___ -1 26.3574 140.264 4 24 63
1940303N11156 1940 77 WP MM NOT_NAMED 1940-11-08 18:00:00 NR 26.7429 141.590 main 921 896 __________P___ -1 26.7616 141.052 4 24 65
1940303N11156 1940 77 WP MM NOT_NAMED 1940-11-08 21:00:00 NR 27.2362 142.821 main 902 893 __________O___ -1 27.3000 142.300 4 22 68
1940303N11156 1940 77 WP MM NOT_NAMED 1940-11-09 00:00:00 NR 27.5772 143.918 main 898 898 __________P___ -1 27.5712 143.459 4 21 73
1940303N11156 1940 77 WP MM NOT_NAMED 1940-11-09 03:00:00 NR 27.8417 145.032 main 927 922 __________P___ -1 27.7755 144.695 4 19 76
1940303N11156 1940 77 WP MM NOT_NAMED 1940-11-09 04:00:00 NR 27.8975 145.326 main 933 933 __________P___ -1 27.8469 145.132 4 18 79
1940303N11156 1940 77 WP MM NOT_NAMED 1940-11-09 06:00:00 NR 28.0176 146.057 main 966 966 __________P___ -1 28.0176 146.057 4 25 76
1940303N11156 1940 77 WP MM NOT_NAMED 1940-11-09 09:00:00 NR 28.4000 147.600 main 1017 1017 __________O___ -1 28.4000 147.600 4 33 71
1940303N11156 1940 77 WP MM NOT_NAMED 1940-11-09 12:00:00 NR 29.0951 149.574 main 1097 1097 __________P___ -1 29.0951 149.574 4 39 67
1940303N11156 1940 77 WP MM NOT_NAMED 1940-11-09 15:00:00 NR 29.9117 151.729 main 1196 1196 __________P___ -1 29.9117 151.729 4 41 66
1940303N11156 1940 77 WP MM NOT_NAMED 1940-11-09 18:00:00 NR 30.7439 153.848 main 1319 1319 __________P___ -1 30.7439 153.848 4 38 65
1940303N11156 1940 77 WP MM NOT_NAMED 1940-11-09 21:00:00 NR 31.5000 155.700 main 1444 1444 __________O___ -1 31.5000 155.700 4 31 64
1940303N11156 1940 77 WP MM NOT_NAMED 1940-11-10 00:00:00 NR 32.1221 157.103 main 1543 1543 __________P___ -1 32.1221 157.103 4 23 61
1940303N11156 1940 77 WP MM NOT_NAMED 1940-11-10 03:00:00 NR 32.6371 158.118 main 1611 1592 __________P___ -1 32.6371 158.118 4 18 57
1940303N11156 1940 77 WP MM NOT_NAMED 1940-11-10 06:00:00 NR 33.0850 158.873 main 1596 1578 __________P___ -1 33.0850 158.873 4 14 53
1940303N11156 1940 77 WP MM NOT_NAMED 1940-11-10 09:00:00 NR 33.5000 159.500 main 1583 __________O___ -1 33.5000 159.500 4 13 52

デジタル台風データ・検索

IBTrACS Databaseについて

本データベースは、米国NOAAが公開する1842年以降の世界の熱帯低気圧のベストトラックデータアーカイブInternational Best Track Archive for Climate Stewardship (IBTrACS)を、ウェブで閲覧しやすい形式に変換したものです。

最終更新日:2021-11-26